createdAt,value
2023-03-12T00:02:28.057Z,12.25
2023-03-12T00:04:56.758Z,11.52
2023-03-12T00:07:24.547Z,15.70
2023-03-12T00:09:52.502Z,11.75
2023-03-12T00:12:20.330Z,13.50
2023-03-12T00:14:48.093Z,13.43
2023-03-12T00:17:15.887Z,11.70
2023-03-12T00:19:45.385Z,9.15
2023-03-12T00:22:13.329Z,10.73
2023-03-12T00:24:41.145Z,10.95
2023-03-12T00:27:08.968Z,8.50
2023-03-12T00:29:37.121Z,9.45
2023-03-12T00:32:05.047Z,10.43
2023-03-12T00:34:32.852Z,11.88
2023-03-12T00:37:02.034Z,10.90
2023-03-12T00:39:29.823Z,15.35
2023-03-12T00:41:57.648Z,10.48
2023-03-12T00:44:25.360Z,8.60
2023-03-12T00:46:53.624Z,9.93
2023-03-12T00:49:21.382Z,11.68
2023-03-12T00:51:49.103Z,8.88
2023-03-12T00:54:18.256Z,9.23
2023-03-12T00:56:46.839Z,11.30
2023-03-12T00:59:14.890Z,10.70
2023-03-12T01:01:43.199Z,10.35
2023-03-12T01:04:11.006Z,11.52
2023-03-12T01:06:39.123Z,14.25
2023-03-12T01:09:09.055Z,7.57
2023-03-12T01:11:39.730Z,9.95
2023-03-12T01:14:09.257Z,11.40
2023-03-12T01:16:37.095Z,12.27
2023-03-12T01:19:05.603Z,11.68
2023-03-12T01:21:33.496Z,18.05
2023-03-12T01:24:01.559Z,8.40
2023-03-12T01:26:29.406Z,10.85
2023-03-12T01:28:58.692Z,9.50
2023-03-12T01:31:26.931Z,10.20
2023-03-12T01:33:57.577Z,10.98
2023-03-12T01:36:27.386Z,15.88
2023-03-12T01:38:57.936Z,10.18
2023-03-12T01:41:27.516Z,6.68
2023-03-12T01:43:55.258Z,10.30
2023-03-12T01:46:29.044Z,12.82
2023-03-12T01:51:29.574Z,10.32
2023-03-12T01:54:01.767Z,10.82
2023-03-12T01:56:33.220Z,10.35
2023-03-12T01:59:04.488Z,14.20
2023-03-12T02:01:34.301Z,12.50
2023-03-12T02:04:03.147Z,6.35
2023-03-12T02:06:38.303Z,6.85
2023-03-12T02:09:08.418Z,6.80
2023-03-12T02:11:36.503Z,10.52
2023-03-12T02:14:04.544Z,9.88
2023-03-12T02:16:34.019Z,8.23
2023-03-12T02:19:05.509Z,11.57
2023-03-12T02:21:35.858Z,7.20
2023-03-12T02:24:09.583Z,11.95
2023-03-12T02:29:08.190Z,10.27
2023-03-12T02:31:41.931Z,11.00
2023-03-12T02:36:37.945Z,10.10
2023-03-12T02:39:05.972Z,8.02
2023-03-12T02:41:36.658Z,10.57
2023-03-12T02:44:11.270Z,10.55
2023-03-12T02:46:42.272Z,13.32
2023-03-12T02:49:11.969Z,8.30
2023-03-12T02:51:40.032Z,8.38
2023-03-12T02:54:08.250Z,10.25
2023-03-12T02:56:36.504Z,10.43
2023-03-12T02:59:06.366Z,8.65
2023-03-12T03:01:34.918Z,10.38
2023-03-12T03:04:03.770Z,7.82
2023-03-12T03:06:32.552Z,6.82
2023-03-12T03:09:00.926Z,9.43
2023-03-12T03:11:28.884Z,10.90
2023-03-12T03:13:56.789Z,11.95
2023-03-12T03:16:26.259Z,9.93
2023-03-12T03:18:54.120Z,18.65
2023-03-12T03:21:22.705Z,10.20
2023-03-12T03:23:51.810Z,7.95
2023-03-12T03:26:22.847Z,11.18
2023-03-12T03:28:51.265Z,10.63
2023-03-12T03:31:19.412Z,13.10
2023-03-12T03:33:49.554Z,9.05
2023-03-12T03:36:18.782Z,7.25
2023-03-12T03:38:49.441Z,8.20
2023-03-12T03:41:18.508Z,9.63
2023-03-12T03:43:46.698Z,10.27
2023-03-12T03:46:15.963Z,8.93
2023-03-12T03:48:44.261Z,10.77
2023-03-12T03:51:14.788Z,11.73
2023-03-12T03:53:42.608Z,6.45
2023-03-12T03:56:12.253Z,7.57
2023-03-12T03:58:40.396Z,11.20
2023-03-12T04:01:08.468Z,9.82
2023-03-12T04:03:36.813Z,11.02
2023-03-12T04:06:07.365Z,13.60
2023-03-12T04:08:37.872Z,7.20
2023-03-12T04:11:10.366Z,12.23
2023-03-12T04:13:38.274Z,11.35
2023-03-12T04:16:06.731Z,9.60
2023-03-12T04:18:36.130Z,8.30
2023-03-12T04:21:05.022Z,13.27
2023-03-12T04:23:33.057Z,11.32
2023-03-12T04:26:02.255Z,9.07
2023-03-12T04:28:30.176Z,12.65
2023-03-12T04:30:59.721Z,12.23
2023-03-12T04:33:28.045Z,12.75
2023-03-12T04:35:56.372Z,10.02
2023-03-12T04:38:25.808Z,8.60
2023-03-12T04:40:59.859Z,10.38
2023-03-12T04:43:29.716Z,8.80
2023-03-12T04:45:58.429Z,8.02
2023-03-12T04:48:26.869Z,12.57
2023-03-12T04:50:54.984Z,13.35
2023-03-12T04:53:23.747Z,12.85
2023-03-12T04:55:52.127Z,12.13
2023-03-12T04:58:20.851Z,13.88
2023-03-12T05:00:51.035Z,17.75
2023-03-12T05:03:19.364Z,9.13
2023-03-12T05:05:47.135Z,10.43
2023-03-12T05:08:14.930Z,14.93
2023-03-12T05:10:45.442Z,12.50
2023-03-12T05:13:16.720Z,12.30
2023-03-12T05:15:44.649Z,15.75
2023-03-12T05:18:13.841Z,11.93
2023-03-12T05:20:41.934Z,18.60
2023-03-12T05:23:10.245Z,17.10
2023-03-12T05:25:40.229Z,16.02
2023-03-12T05:28:08.188Z,12.85
2023-03-12T05:30:36.131Z,9.65
2023-03-12T05:33:03.986Z,14.32
2023-03-12T05:35:33.167Z,20.40
2023-03-12T05:38:01.130Z,14.13
2023-03-12T05:40:29.000Z,11.93
2023-03-12T05:42:56.721Z,19.00
2023-03-12T05:45:24.482Z,16.42
2023-03-12T05:47:52.215Z,10.57
2023-03-12T05:50:20.118Z,11.85
2023-03-12T05:52:49.206Z,18.45
2023-03-12T05:55:17.205Z,23.88
2023-03-12T05:57:45.274Z,16.98
2023-03-12T06:00:15.066Z,12.73
2023-03-12T06:02:43.871Z,14.15
2023-03-12T06:05:11.964Z,14.30
2023-03-12T06:07:39.990Z,10.50
2023-03-12T06:10:11.026Z,13.13
2023-03-12T06:12:38.877Z,12.05
2023-03-12T06:15:07.578Z,15.20
2023-03-12T06:17:35.367Z,42.65
2023-03-12T06:20:03.138Z,17.95
2023-03-12T06:22:31.278Z,17.00
2023-03-12T06:24:59.099Z,16.33
2023-03-12T06:27:28.398Z,16.20
2023-03-12T06:29:57.883Z,21.73
2023-03-12T06:32:26.061Z,13.55
2023-03-12T06:34:55.749Z,14.73
2023-03-12T06:37:25.784Z,15.25
2023-03-12T06:39:53.772Z,20.83
2023-03-12T06:42:22.636Z,21.73
2023-03-12T06:44:52.214Z,19.45
2023-03-12T06:47:19.981Z,15.98
2023-03-12T06:49:47.703Z,14.27
2023-03-12T06:52:17.586Z,18.20
2023-03-12T06:54:45.374Z,30.55
2023-03-12T06:57:13.109Z,17.48
2023-03-12T06:59:40.872Z,14.73
2023-03-12T07:02:11.330Z,19.77
2023-03-12T07:04:39.236Z,22.77
2023-03-12T07:07:08.613Z,15.55
2023-03-12T07:09:37.576Z,18.98
2023-03-12T07:12:05.523Z,17.30
2023-03-12T07:14:36.050Z,21.02
2023-03-12T07:17:04.491Z,22.80
2023-03-12T07:19:33.665Z,21.70
2023-03-12T07:22:16.764Z,18.23
2023-03-12T07:24:44.566Z,21.25
2023-03-12T07:27:12.399Z,16.48
2023-03-12T07:29:40.247Z,17.55
2023-03-12T07:32:08.303Z,20.05
2023-03-12T07:34:37.407Z,18.52
2023-03-12T07:37:05.512Z,22.25
2023-03-12T07:39:33.294Z,30.77
2023-03-12T07:42:01.271Z,23.23
2023-03-12T07:44:29.088Z,19.08
2023-03-12T07:46:56.901Z,18.65
2023-03-12T07:49:24.707Z,19.38
2023-03-12T07:51:53.828Z,22.75
2023-03-12T07:54:25.511Z,25.48
2023-03-12T07:56:53.712Z,46.95
2023-03-12T07:59:22.289Z,25.60
2023-03-12T08:01:50.210Z,25.85
2023-03-12T08:04:18.075Z,33.58
2023-03-12T08:06:48.772Z,27.00
2023-03-12T08:09:17.961Z,31.75
2023-03-12T08:11:45.709Z,27.75
2023-03-12T08:14:13.535Z,30.92
2023-03-12T08:16:41.326Z,31.60
2023-03-12T08:19:24.667Z,36.97
2023-03-12T08:21:53.254Z,41.05
2023-03-12T08:24:23.161Z,33.67
2023-03-12T08:26:50.942Z,40.33
2023-03-12T08:29:18.946Z,44.30
2023-03-12T08:32:03.478Z,50.33
2023-03-12T08:34:32.167Z,41.70
2023-03-12T08:37:00.141Z,39.20
2023-03-12T08:39:29.501Z,44.17
2023-03-12T08:41:57.236Z,41.80
2023-03-12T08:44:25.663Z,55.10
2023-03-12T08:46:53.677Z,56.75
2023-03-12T08:49:22.732Z,53.47
2023-03-12T08:51:51.698Z,49.45
2023-03-12T08:54:19.933Z,66.03
2023-03-12T08:56:52.452Z,56.80
2023-03-12T08:59:22.216Z,52.53
2023-03-12T09:01:50.590Z,61.17
2023-03-12T09:04:18.421Z,67.68
2023-03-12T09:06:46.250Z,53.78
2023-03-12T09:09:14.039Z,59.95
2023-03-12T09:11:42.530Z,56.55
2023-03-12T09:16:59.691Z,44.55
2023-03-12T09:19:27.498Z,47.72
2023-03-12T09:21:55.491Z,58.45
2023-03-12T09:24:23.272Z,45.47
2023-03-12T09:26:51.395Z,47.88
2023-03-12T09:29:21.627Z,59.03
2023-03-12T09:31:49.419Z,80.90
2023-03-12T09:34:17.780Z,44.33
2023-03-12T09:36:45.663Z,43.30
2023-03-12T09:39:13.621Z,39.55
2023-03-12T09:41:43.893Z,41.50
2023-03-12T09:44:17.772Z,46.30
2023-03-12T09:46:50.161Z,42.92
2023-03-12T09:49:24.074Z,43.13
2023-03-12T09:51:56.562Z,41.75
2023-03-12T09:54:28.110Z,39.38
2023-03-12T09:56:59.172Z,40.38
2023-03-12T09:59:28.998Z,51.33
2023-03-12T10:02:01.243Z,46.72
2023-03-12T10:04:52.340Z,41.22
2023-03-12T10:07:33.027Z,46.33
2023-03-12T10:10:11.819Z,37.47
2023-03-12T10:12:52.837Z,48.88
2023-03-12T10:15:31.553Z,50.03
2023-03-12T10:18:12.024Z,43.33
2023-03-12T10:21:09.355Z,51.28
2023-03-12T10:23:50.199Z,54.50
2023-03-12T10:26:23.459Z,37.88
2023-03-12T10:28:54.764Z,51.65
2023-03-12T10:31:27.620Z,50.15
2023-03-12T10:33:59.782Z,54.30
2023-03-12T10:36:35.580Z,62.58
2023-03-12T10:39:03.361Z,43.67
2023-03-12T10:41:34.891Z,43.63
2023-03-12T10:44:07.997Z,54.80
2023-03-12T10:46:55.199Z,38.73
2023-03-12T10:49:31.183Z,43.53
2023-03-12T10:52:01.990Z,50.85
2023-03-12T10:54:32.837Z,47.10
2023-03-12T10:57:01.008Z,47.08
2023-03-12T10:59:32.366Z,56.92
2023-03-12T11:02:00.937Z,56.92
2023-03-12T11:04:32.462Z,59.50
2023-03-12T11:07:15.835Z,40.85
2023-03-12T11:09:43.559Z,50.38
2023-03-12T11:12:25.962Z,52.13
2023-03-12T11:14:53.904Z,47.47
2023-03-12T11:17:23.613Z,63.13
2023-03-12T11:19:52.865Z,49.38
2023-03-12T11:22:32.645Z,47.38
2023-03-12T11:25:04.102Z,58.20
2023-03-12T11:27:41.626Z,44.95
2023-03-12T11:30:15.346Z,52.17
2023-03-12T11:35:16.030Z,53.80
2023-03-12T11:37:57.346Z,50.28
2023-03-12T11:40:49.265Z,48.85
2023-03-12T11:43:42.695Z,47.72
2023-03-12T11:46:27.572Z,55.20
2023-03-12T11:49:09.546Z,37.30
2023-03-12T11:51:51.113Z,49.92
2023-03-12T11:55:03.350Z,52.83
2023-03-12T11:57:47.932Z,50.25
2023-03-12T12:00:17.612Z,51.47
2023-03-12T12:03:28.353Z,45.90
2023-03-12T12:06:03.178Z,51.63
2023-03-12T12:08:57.531Z,48.97
2023-03-12T12:11:35.482Z,50.03
2023-03-12T12:14:15.913Z,63.30
2023-03-12T12:17:09.298Z,49.72
2023-03-12T12:19:51.713Z,46.53
2023-03-12T12:22:32.852Z,49.92
2023-03-12T12:25:22.175Z,52.70
2023-03-12T12:28:00.747Z,49.90
2023-03-12T12:30:47.604Z,40.92
2023-03-12T12:33:29.093Z,41.22
2023-03-12T12:35:56.935Z,44.00
2023-03-12T12:38:30.916Z,54.58
2023-03-12T12:41:08.998Z,37.03
2023-03-12T12:43:40.077Z,43.38
2023-03-12T12:46:11.601Z,45.28
2023-03-12T12:48:43.385Z,49.70
2023-03-12T12:51:13.465Z,37.90
2023-03-12T12:53:47.854Z,47.30
2023-03-12T12:56:23.993Z,46.08
2023-03-12T12:59:11.997Z,50.58
2023-03-12T13:01:40.733Z,39.72
2023-03-12T13:04:13.466Z,45.40
2023-03-12T13:06:59.275Z,47.08
2023-03-12T13:09:38.790Z,45.30
2023-03-12T13:12:16.433Z,42.65
2023-03-12T13:14:45.623Z,43.38
2023-03-12T13:17:31.233Z,36.75
2023-03-12T13:20:15.768Z,39.63
2023-03-12T13:23:00.982Z,47.05
2023-03-12T13:25:41.488Z,43.80
2023-03-12T13:28:32.905Z,37.60
2023-03-12T13:31:01.552Z,43.17
2023-03-12T13:33:42.168Z,41.88
2023-03-12T13:36:23.758Z,51.28
2023-03-12T13:38:58.099Z,38.60
2023-03-12T13:41:37.789Z,45.15
2023-03-12T13:44:40.436Z,42.90
2023-03-12T13:47:23.455Z,34.92
2023-03-12T13:49:56.085Z,46.35
2023-03-12T13:52:26.084Z,38.25
2023-03-12T13:55:01.969Z,51.58
2023-03-12T13:57:39.544Z,48.08
2023-03-12T14:00:17.490Z,38.10
2023-03-12T14:02:50.722Z,52.10
2023-03-12T14:05:20.978Z,44.95
2023-03-12T14:08:06.003Z,46.38
2023-03-12T14:10:44.712Z,40.08
2023-03-12T14:13:25.272Z,39.42
2023-03-12T14:16:01.768Z,47.80
2023-03-12T14:18:33.818Z,44.08
2023-03-12T14:21:04.559Z,43.38
2023-03-12T14:23:38.865Z,42.63
2023-03-12T14:26:08.538Z,49.72
2023-03-12T14:28:42.251Z,38.40
2023-03-12T14:31:15.318Z,36.55
2023-03-12T14:33:58.276Z,42.75
2023-03-12T14:36:30.431Z,37.45
2023-03-12T14:39:09.735Z,42.08
2023-03-12T14:41:44.334Z,30.15
2023-03-12T14:44:23.572Z,36.45
2023-03-12T14:47:01.008Z,40.60
2023-03-12T14:49:29.590Z,34.67
2023-03-12T14:51:58.070Z,35.70
2023-03-12T14:54:28.573Z,40.45
2023-03-12T14:56:56.485Z,38.92
2023-03-12T14:59:28.922Z,43.15
2023-03-12T15:02:02.237Z,46.72
2023-03-12T15:04:31.687Z,32.63
2023-03-12T15:07:04.405Z,42.90
2023-03-12T15:09:36.080Z,37.35
2023-03-12T15:12:09.344Z,42.92
2023-03-12T15:14:43.174Z,40.17
2023-03-12T15:17:17.379Z,38.45
2023-03-12T15:19:46.144Z,43.72
2023-03-12T15:22:18.450Z,53.65
2023-03-12T15:24:46.251Z,50.90
2023-03-12T15:27:23.306Z,52.38
2023-03-12T15:29:51.125Z,55.05
2023-03-12T15:32:22.653Z,57.03
2023-03-12T15:34:50.678Z,52.83
2023-03-12T15:37:24.737Z,39.53
2023-03-12T15:39:54.360Z,43.15
2023-03-12T15:42:25.415Z,54.78
2023-03-12T15:44:56.791Z,54.85
2023-03-12T15:47:28.960Z,50.70
2023-03-12T15:49:59.031Z,58.90
2023-03-12T15:52:32.856Z,55.60
2023-03-12T15:57:30.456Z,43.88
2023-03-12T16:00:26.114Z,46.92
2023-03-12T16:02:58.178Z,44.13
2023-03-12T16:05:29.204Z,50.22
2023-03-12T16:07:57.316Z,47.35
2023-03-12T16:10:28.049Z,45.90
2023-03-12T16:13:03.343Z,51.85
2023-03-12T16:15:33.810Z,42.25
2023-03-12T16:18:03.276Z,41.97
2023-03-12T16:20:31.597Z,50.70
2023-03-12T16:22:59.400Z,50.55
2023-03-12T16:25:27.536Z,50.95
2023-03-12T16:27:59.085Z,48.05
2023-03-12T16:30:30.275Z,49.67
2023-03-12T16:32:58.596Z,52.67
2023-03-12T16:35:28.672Z,40.95
2023-03-12T16:37:56.956Z,54.45
2023-03-12T16:40:33.259Z,45.90
2023-03-12T16:43:03.948Z,52.50
2023-03-12T16:45:34.529Z,48.72
2023-03-12T16:48:04.386Z,52.15
2023-03-12T16:50:33.769Z,43.65
2023-03-12T16:53:03.980Z,42.60
2023-03-12T16:55:44.224Z,47.80
2023-03-12T16:58:14.102Z,43.47
2023-03-12T17:00:42.508Z,36.92
2023-03-12T17:03:19.544Z,39.00
2023-03-12T17:05:48.765Z,29.08
2023-03-12T17:08:16.764Z,50.75
2023-03-12T17:10:44.638Z,36.03
2023-03-12T17:13:19.884Z,40.83
2023-03-12T17:15:48.294Z,32.53
2023-03-12T17:18:16.633Z,31.15
2023-03-12T17:20:44.569Z,34.17
2023-03-12T17:23:13.971Z,32.50
2023-03-12T17:25:43.413Z,28.65
2023-03-12T17:28:12.624Z,26.02
2023-03-12T17:30:40.417Z,28.92
2023-03-12T17:33:10.678Z,22.45
2023-03-12T17:35:39.804Z,25.40
2023-03-12T17:38:08.187Z,25.23
2023-03-12T17:40:40.817Z,15.80
2023-03-12T17:43:08.585Z,14.77
2023-03-12T17:45:37.004Z,15.80
2023-03-12T17:48:05.459Z,15.27
2023-03-12T17:50:33.303Z,15.48
2023-03-12T17:53:01.430Z,11.05
2023-03-12T17:55:29.213Z,13.85
2023-03-12T17:57:58.376Z,21.38
2023-03-12T18:00:26.417Z,16.45
2023-03-12T18:02:54.244Z,15.18
2023-03-12T18:05:22.184Z,17.25
2023-03-12T18:07:50.527Z,14.75
2023-03-12T18:10:19.275Z,13.75
2023-03-12T18:12:47.059Z,15.82
2023-03-12T18:15:16.831Z,20.65
2023-03-12T18:17:45.679Z,17.52
2023-03-12T18:20:25.848Z,18.58
2023-03-12T18:23:04.012Z,12.88
2023-03-12T18:25:31.745Z,17.48
2023-03-12T18:27:59.593Z,19.00
2023-03-12T18:30:28.792Z,18.80
2023-03-12T18:32:56.661Z,20.60
2023-03-12T18:35:28.717Z,24.60
2023-03-12T18:37:57.860Z,22.85
2023-03-12T18:40:25.844Z,13.80
2023-03-12T18:42:53.749Z,14.85
2023-03-12T18:45:21.515Z,15.13
2023-03-12T18:47:51.091Z,18.77
2023-03-12T18:50:19.132Z,16.48
2023-03-12T18:52:47.322Z,18.95
2023-03-12T18:55:16.217Z,16.42
2023-03-12T18:57:44.726Z,18.83
2023-03-12T19:00:15.056Z,26.77
2023-03-12T19:02:43.224Z,32.10
2023-03-12T19:05:12.399Z,20.27
2023-03-12T19:07:40.933Z,28.45
2023-03-12T19:10:10.560Z,24.75
2023-03-12T19:12:51.021Z,22.40
2023-03-12T19:15:20.727Z,16.25
2023-03-12T19:17:48.541Z,21.38
2023-03-12T19:20:18.335Z,24.58
2023-03-12T19:22:46.318Z,24.73
2023-03-12T19:25:14.234Z,21.25
2023-03-12T19:27:42.145Z,24.95
2023-03-12T19:30:11.211Z,28.23
2023-03-12T19:32:43.781Z,25.65
2023-03-12T19:35:14.550Z,25.67
2023-03-12T19:37:43.985Z,32.35
2023-03-12T19:40:13.396Z,25.85
2023-03-12T19:42:41.457Z,27.80
2023-03-12T19:45:10.455Z,26.48
2023-03-12T19:47:38.400Z,28.88
2023-03-12T19:50:07.342Z,28.95
2023-03-12T19:52:35.282Z,24.33
2023-03-12T19:55:05.800Z,34.45
2023-03-12T19:57:37.831Z,24.73
2023-03-12T20:00:09.713Z,25.88
2023-03-12T20:02:38.796Z,25.58
2023-03-12T20:05:08.669Z,31.30
2023-03-12T20:07:37.033Z,33.75
2023-03-12T20:10:09.952Z,31.67
2023-03-12T20:12:38.196Z,23.57
2023-03-12T20:15:07.106Z,26.98
2023-03-12T20:17:36.549Z,28.60
2023-03-12T20:20:05.866Z,37.22
2023-03-12T20:22:36.359Z,25.20
2023-03-12T20:25:06.811Z,37.75
2023-03-12T20:27:35.279Z,36.78
2023-03-12T20:30:03.751Z,39.10
2023-03-12T20:32:31.685Z,31.20
2023-03-12T20:34:59.537Z,32.10
2023-03-12T20:37:27.399Z,30.95
2023-03-12T20:39:55.235Z,29.90
2023-03-12T20:42:24.398Z,32.88
2023-03-12T20:44:53.338Z,26.73
2023-03-12T20:47:21.062Z,31.55
2023-03-12T20:49:48.882Z,33.67
2023-03-12T20:52:16.718Z,30.42
2023-03-12T20:54:44.668Z,37.53
2023-03-12T20:57:12.452Z,36.60
2023-03-12T20:59:41.633Z,24.83
2023-03-12T21:02:13.976Z,24.20
2023-03-12T21:04:42.214Z,31.40
2023-03-12T21:07:10.017Z,43.58
2023-03-12T21:09:37.853Z,37.67
2023-03-12T21:12:06.018Z,32.47
2023-03-12T21:14:33.890Z,30.85
2023-03-12T21:17:03.096Z,35.65
2023-03-12T21:19:31.138Z,32.88
2023-03-12T21:21:59.164Z,37.47
2023-03-12T21:24:26.970Z,39.38
2023-03-12T21:26:55.091Z,39.45
2023-03-12T21:29:22.879Z,45.35
2023-03-12T21:31:53.694Z,39.17
2023-03-12T21:34:23.018Z,47.47
2023-03-12T21:36:50.802Z,41.65
2023-03-12T21:39:18.875Z,31.60
2023-03-12T21:41:46.643Z,31.65
2023-03-12T21:44:16.505Z,41.60
2023-03-12T21:46:44.666Z,44.60
2023-03-12T21:49:13.947Z,46.15
2023-03-12T21:51:43.104Z,33.90
2023-03-12T21:54:11.584Z,35.05
2023-03-12T21:57:02.532Z,47.75
2023-03-12T21:59:31.426Z,37.67
2023-03-12T22:01:59.840Z,45.75
2023-03-12T22:04:28.714Z,34.38
2023-03-12T22:06:57.925Z,41.47
2023-03-12T22:09:25.815Z,39.72
2023-03-12T22:11:53.844Z,40.20
2023-03-12T22:14:21.628Z,34.00
2023-03-12T22:16:49.379Z,33.58
2023-03-12T22:19:17.170Z,37.20
2023-03-12T22:21:46.815Z,40.92
2023-03-12T22:24:15.919Z,34.25
2023-03-12T22:26:43.864Z,45.30
2023-03-12T22:29:11.762Z,39.63
2023-03-12T22:31:39.658Z,36.28
2023-03-12T22:34:07.677Z,41.35
2023-03-12T22:36:35.486Z,37.55
2023-03-12T22:39:03.213Z,42.95
2023-03-12T22:41:32.810Z,41.60
2023-03-12T22:44:39.889Z,31.73
2023-03-12T22:47:04.410Z,34.75
2023-03-12T22:49:32.281Z,38.85
2023-03-12T22:52:00.118Z,42.35
2023-03-12T22:54:27.851Z,31.50
2023-03-12T22:56:56.977Z,37.78
2023-03-12T22:59:24.779Z,43.90
2023-03-12T23:01:52.752Z,32.55
2023-03-12T23:05:03.070Z,28.50
2023-03-12T23:07:31.000Z,35.58
2023-03-12T23:09:59.232Z,39.25
2023-03-12T23:12:28.376Z,36.95
2023-03-12T23:14:56.181Z,31.10
2023-03-12T23:17:24.033Z,40.97
2023-03-12T23:19:52.025Z,29.80
2023-03-12T23:22:19.935Z,36.30
2023-03-12T23:24:47.692Z,36.53
2023-03-12T23:27:15.412Z,41.30
2023-03-12T23:29:44.666Z,32.30
2023-03-12T23:32:12.420Z,29.50
2023-03-12T23:34:40.194Z,44.40
2023-03-12T23:37:08.165Z,37.50
2023-03-12T23:39:48.457Z,27.92
2023-03-12T23:42:22.000Z,32.60
2023-03-12T23:44:51.167Z,30.45
2023-03-12T23:47:19.051Z,32.42
2023-03-12T23:49:46.858Z,28.90
2023-03-12T23:52:14.625Z,34.30
2023-03-12T23:54:42.370Z,39.42
2023-03-12T23:57:10.180Z,37.35
2023-03-12T23:59:37.914Z,31.17
